Varmdo — SMXZ — position and weather

sailwx.info

Track history (hours):
 
Tides and Currents Weather Stations Pressure Air Temp Water Temp Dewpoint Dewpoint Depression Visibility Wind Speed Wind Dir Waves Ship Positions

Varmdo

Last reported at 2017-May-30 12:28 UTC. Time now 2017-May-30 12:54 UTC.
Position N 59°20' E 018°05'.

Length 38 m; draft 2.5 m.

Type: Passenger vessel. MMSI: 265520390.

Date/timePositionNaut miles runAvg speedWind from/ knotsBaromVisibWave heightAir tempDewpointWater temp
2017-May-30 12:28N 59°20' E 018°05'0 0.0
2017-May-30 11:59N 59°20' E 018°05'0 0.0
2017-May-30 11:28N 59°20' E 018°05'0 0.0
2017-May-30 10:55N 59°20' E 018°05'0 0.0
2017-May-30 10:29N 59°20' E 018°05'0 0.0
2017-May-30 09:59N 59°20' E 018°05'0 0.0
2017-May-30 09:28N 59°20' E 018°05'0 0.0
2017-May-30 08:58N 59°20' E 018°05'0 0.0
2017-May-30 08:28N 59°20' E 018°05'0 0.0
2017-May-30 07:58N 59°20' E 018°05'0 0.0
2017-May-30 07:29N 59°20' E 018°05'0 0.0
2017-May-30 06:58N 59°20' E 018°05'0 0.0
2017-May-30 06:28N 59°20' E 018°05'0 0.0
2017-May-30 05:58N 59°20' E 018°05'0 0.0
2017-May-30 05:25N 59°20' E 018°05'0 0.0
2017-May-30 04:58N 59°20' E 018°05'0 0.0
2017-May-30 04:28N 59°20' E 018°05'0 0.0
2017-May-30 03:58N 59°20' E 018°05'0 0.0
2017-May-30 03:29N 59°20' E 018°05'0 0.0
2017-May-30 02:59N 59°20' E 018°05'0 0.0
2017-May-30 02:29N 59°20' E 018°05'0 0.0
2017-May-30 01:58N 59°20' E 018°05'0 0.0
2017-May-30 01:28N 59°20' E 018°05'0 0.0
2017-May-30 00:59N 59°20' E 018°05'0 0.0
2017-May-30 00:28N 59°20' E 018°05'0 0.0
2017-May-29 23:58N 59°20' E 018°05'0 0.0
2017-May-29 23:29N 59°20' E 018°05'0 0.0
2017-May-29 22:58N 59°20' E 018°05'0 0.0
2017-May-29 22:28N 59°20' E 018°05'0 0.0
2017-May-29 21:58N 59°20' E 018°05'0 0.0
2017-May-29 21:28N 59°20' E 018°05'0 0.0
2017-May-29 20:59N 59°20' E 018°05'0 0.0
2017-May-29 20:28N 59°20' E 018°05'0 0.0
2017-May-29 19:58N 59°20' E 018°05'0 0.0
2017-May-29 19:28N 59°20' E 018°05'0 0.0
2017-May-29 18:59N 59°20' E 018°05'0 0.0
2017-May-29 18:28N 59°20' E 018°05'0 0.0
2017-May-29 17:59N 59°20' E 018°05'0 0.0
2017-May-29 17:29N 59°20' E 018°05'0 0.0
2017-May-29 16:59N 59°20' E 018°05'0 0.0
2017-May-29 16:28N 59°20' E 018°05'0 0.0
2017-May-29 15:58N 59°20' E 018°05'0 0.0
2017-May-29 15:29N 59°20' E 018°05'0 0.0
2017-May-29 14:58N 59°20' E 018°05'0 0.0
2017-May-29 14:29N 59°20' E 018°05'0 0.0
2017-May-29 13:29N 59°20' E 018°05'0 0.0
2017-May-29 12:58N 59°20' E 018°05'0 0.0
2017-May-29 12:28N 59°20' E 018°05'0 0.0
2017-May-29 11:59N 59°20' E 018°05'0 0.0
2017-May-29 11:29N 59°20' E 018°05'0 0.0
2017-May-29 10:58N 59°20' E 018°05'0 0.0
2017-May-29 10:28N 59°20' E 018°05'0 0.0
2017-May-29 09:59N 59°20' E 018°05'0 0.0
2017-May-29 09:28N 59°20' E 018°05'0 0.0
2017-May-29 08:58N 59°20' E 018°05'0 0.0
2017-May-29 08:29N 59°20' E 018°05'3 5.5
2017-May-29 08:00N 59°19' E 018°09'611.6
2017-May-29 07:29N 59°23' E 018°19'3 5.5
2017-May-29 07:00N 59°25' E 018°22'3 6.1
2017-May-29 06:29N 59°25' E 018°28'14 1.6
2017-May-28 21:58N 59°27' E 018°55'0 0.0
2017-May-28 21:28N 59°27' E 018°55'0 0.0
2017-May-28 20:58N 59°27' E 018°55'0 0.0
2017-May-28 20:28N 59°27' E 018°55'0 0.0
2017-May-28 19:58N 59°27' E 018°55'0 0.0
2017-May-28 19:28N 59°27' E 018°55'5 5.6
2017-May-28 18:39N 59°23' E 018°50'2 9.8
2017-May-28 18:28N 59°24' E 018°47'7 9.5
2017-May-28 17:44N 59°24' E 018°34'311.1
2017-May-28 17:28N 59°25' E 018°28'4 8.3
2017-May-28 17:01N 59°24' E 018°21'5 9.2
2017-May-28 16:30N 59°21' E 018°15'510.5
2017-May-28 16:00N 59°20' E 018°04'0 0.0
2017-May-28 15:29N 59°20' E 018°04'0 0.0
2017-May-28 14:56N 59°20' E 018°04'3 2.8
2017-May-28 14:00N 59°19' E 018°09'612.6
2017-May-28 13:30N 59°23' E 018°19'4 7.8
2017-May-28 12:58N 59°25' E 018°26'1011.8
2017-May-28 12:08N 59°23' E 018°44'2 7.6
2017-May-28 11:50N 59°24' E 018°47'2 5.1
2017-May-28 11:24N 59°23' E 018°50'3 6.5
2017-May-28 10:57N 59°25' E 018°54'1 1.4
2017-May-28 10:30N 59°25' E 018°55'3 6.0
2017-May-28 09:57N 59°23' E 018°51'7 3.0
2017-May-28 07:41N 59°25' E 018°38'2 7.5
2017-May-28 07:29N 59°26' E 018°39'3 5.5
2017-May-28 06:57N 59°28' E 018°44'4 8.9
2017-May-28 06:30N 59°30' E 018°51'0 0.0
2017-May-28 06:00N 59°30' E 018°51'0 0.0
2017-May-28 05:30N 59°30' E 018°51'0 0.0
2017-May-28 04:48N 59°30' E 018°51'0 0.0
2017-May-28 04:30N 59°30' E 018°51'0 0.0
2017-May-28 03:54N 59°30' E 018°51'0 0.0
2017-May-28 03:12N 59°30' E 018°51'0 0.0
2017-May-28 03:00N 59°30' E 018°51'0 0.0
2017-May-28 02:30N 59°30' E 018°51'0 0.0
2017-May-28 02:00N 59°30' E 018°51'0 0.0
2017-May-28 01:30N 59°30' E 018°51'0 0.0
2017-May-28 01:00N 59°30' E 018°51'0 0.0
2017-May-28 00:24N 59°30' E 018°51'0 0.0
2017-May-27 23:57N 59°30' E 018°51'0 0.0
2017-May-27 23:27N 59°30' E 018°51'0 0.0
2017-May-27 23:00N 59°30' E 018°51'0 0.0
2017-May-27 22:30N 59°30' E 018°51'0 0.0
2017-May-27 19:24N 59°30' E 018°51'0 0.0
2017-May-27 19:00N 59°30' E 018°51'0 0.0
2017-May-27 18:30N 59°30' E 018°51'0 0.0
2017-May-27 17:54N 59°30' E 018°51'0 0.0
2017-May-27 17:30N 59°30' E 018°51'5 8.9
2017-May-27 16:59N 59°27' E 018°44'8 6.3
2017-May-27 15:40N 59°25' E 018°28'1 8.5
2017-May-27 15:30N 59°26' E 018°25'4 7.2
2017-May-27 15:01N 59°23' E 018°20'9 8.7
2017-May-27 14:00N 59°20' E 018°04'0 0.1
2017-May-27 13:30N 59°20' E 018°04'0 0.0
2017-May-27 13:00N 59°20' E 018°04'1 2.1
2017-May-27 12:31N 59°19' E 018°06'510.1
2017-May-27 12:01N 59°22' E 018°15'4 8.4
2017-May-27 11:30N 59°24' E 018°21'4 7.4
2017-May-27 11:00N 59°25' E 018°28'816.3
2017-May-27 10:30N 59°26' E 018°44'612.0
2017-May-27 10:01N 59°26' E 018°56'4 7.0
2017-May-27 09:27N 59°23' E 018°52'3 6.1
2017-May-27 09:00N 59°24' E 018°47'10 6.2
2017-May-27 07:24N 59°25' E 018°28'4 9.6
2017-May-27 07:00N 59°24' E 018°21'5 9.0
2017-May-27 06:30N 59°21' E 018°15'510.8
2017-May-27 06:00N 59°20' E 018°04'0 0.1
2017-May-27 05:30N 59°20' E 018°04'0 0.0
2017-May-27 05:00N 59°20' E 018°04'0 0.0
2017-May-27 04:30N 59°20' E 018°04'0 0.0
2017-May-27 04:00N 59°20' E 018°04'0 0.0
2017-May-27 03:30N 59°20' E 018°04'0 0.0
2017-May-27 03:00N 59°20' E 018°04'0 0.0
2017-May-27 02:30N 59°20' E 018°04'0 0.0
2017-May-27 02:00N 59°20' E 018°04'0 0.0
2017-May-27 01:30N 59°20' E 018°04'0 0.0
2017-May-27 01:00N 59°20' E 018°04'0 0.0
2017-May-27 00:30N 59°20' E 018°04'0 0.0
2017-May-27 00:00N 59°20' E 018°04'0 0.0
2017-May-26 23:30N 59°20' E 018°04'0 0.0
2017-May-26 23:00N 59°20' E 018°04'0 0.0
2017-May-26 22:30N 59°20' E 018°04'0 0.0
2017-May-26 22:00N 59°20' E 018°04'0 0.0
2017-May-26 21:30N 59°20' E 018°04'0 0.0
2017-May-26 21:00N 59°20' E 018°04'0 0.0
2017-May-26 20:30N 59°20' E 018°04'0 0.0
2017-May-26 20:00N 59°20' E 018°04'0 0.0
2017-May-26 19:30N 59°20' E 018°04'5 9.3
2017-May-26 19:00N 59°21' E 018°13'510.8
2017-May-26 18:30N 59°24' E 018°21'611.8
2017-May-26 17:59N 59°25' E 018°33'3 5.2
2017-May-26 17:30N 59°27' E 018°36'5 9.5
2017-May-26 17:01N 59°29' E 018°45'2 4.0
2017-May-26 16:30N 59°30' E 018°48'611.3
2017-May-26 16:00N 59°27' E 018°38'3 5.0
2017-May-26 15:28N 59°26' E 018°34'4 9.3
2017-May-26 15:00N 59°27' E 018°27'9 8.8
2017-May-26 14:00N 59°21' E 018°15'510.7
2017-May-26 13:30N 59°20' E 018°04'0 0.1
2017-May-26 13:00N 59°20' E 018°05'0 0.0
2017-May-26 12:30N 59°20' E 018°05'0 0.0
2017-May-26 12:00N 59°20' E 018°05'5 9.6
2017-May-26 11:30N 59°21' E 018°14'4 8.7
2017-May-26 11:00N 59°23' E 018°20'4 8.0
2017-May-26 10:31N 59°21' E 018°15'510.0
2017-May-26 09:59N 59°20' E 018°04'0 0.0
2017-May-26 09:29N 59°20' E 018°04'0 0.0
2017-May-26 08:59N 59°20' E 018°04'0 0.0
2017-May-26 08:29N 59°20' E 018°04'0 0.0
2017-May-26 07:59N 59°20' E 018°04'0 0.0
2017-May-26 07:29N 59°20' E 018°04'0 0.0
2017-May-26 06:59N 59°20' E 018°04'0 0.0
2017-May-26 06:29N 59°20' E 018°04'0 0.0
2017-May-26 05:59N 59°20' E 018°04'4 7.5
2017-May-26 05:30N 59°20' E 018°11'5 9.6
2017-May-26 05:00N 59°23' E 018°19'2 4.3
2017-May-26 04:30N 59°24' E 018°22'1 1.4
2017-May-26 04:00N 59°24' E 018°23'1 1.7
2017-May-26 03:26N 59°24' E 018°21'0 0.0
2017-May-26 02:59N 59°24' E 018°21'0 0.0
2017-May-26 02:29N 59°24' E 018°21'0 0.0
2017-May-26 01:47N 59°24' E 018°21'0 0.0
2017-May-26 01:23N 59°24' E 018°21'0 0.0
2017-May-26 00:59N 59°24' E 018°21'0 0.0
2017-May-26 00:23N 59°24' E 018°21'0 0.0
2017-May-25 23:59N 59°24' E 018°21'0 0.0
2017-May-25 23:29N 59°24' E 018°21'0 0.0
2017-May-25 22:59N 59°24' E 018°21'0 0.0
2017-May-25 22:29N 59°24' E 018°21'0 0.0
2017-May-25 21:59N 59°24' E 018°21'0 0.0
2017-May-25 21:29N 59°24' E 018°21'0 0.0
2017-May-25 20:59N 59°24' E 018°21'0 0.0
2017-May-25 20:29N 59°24' E 018°21'0 0.0
2017-May-25 19:54N 59°24' E 018°21'614.6
2017-May-25 19:30N 59°20' E 018°13'4 8.7
2017-May-25 19:00N 59°20' E 018°05'510.5
2017-May-25 18:30N 59°21' E 018°14'5 9.0
2017-May-25 18:00N 59°24' E 018°21'4 7.2
2017-May-25 17:29N 59°25' E 018°28'8 7.2
2017-May-25 16:26N 59°22' E 018°42'4 4.7
2017-May-25 15:35N 59°23' E 018°50'2 7.8
2017-May-25 15:19N 59°24' E 018°53'3 8.7
2017-May-25 15:00N 59°26' E 018°56'4 8.3
2017-May-25 14:30N 59°23' E 018°50'6 0.3
2017-May-24 18:24N 59°18' E 018°54'718.3
2017-May-24 18:00N 59°22' E 018°43'3 5.6
2017-May-24 17:25N 59°23' E 018°50'511.6
2017-May-24 17:00N 59°27' E 018°55'4 6.0
2017-May-24 16:23N 59°23' E 018°52'2 4.5
2017-May-24 15:50N 59°23' E 018°47'2 5.8
2017-May-24 15:28N 59°23' E 018°43'716.5
2017-May-24 15:00N 59°27' E 018°56'4 6.1
2017-May-24 14:16N 59°23' E 018°52'12 6.8
2017-May-24 12:26N 59°25' E 018°28'4 7.7
2017-May-24 11:57N 59°24' E 018°21'510.3
2017-May-24 11:31N 59°21' E 018°15'510.6
2017-May-24 11:00N 59°20' E 018°04'0 0.1
2017-May-24 10:22N 59°20' E 018°05'0 0.0
2017-May-24 09:43N 59°20' E 018°05'0 0.0
2017-May-24 09:22N 59°20' E 018°05'0 0.9
2017-May-24 09:00N 59°19' E 018°05'510.1
2017-May-24 08:29N 59°21' E 018°14'4 9.4
2017-May-24 08:00N 59°24' E 018°21'3 6.0
2017-May-24 07:30N 59°27' E 018°23'4 8.3
2017-May-24 07:00N 59°28' E 018°31'7 5.6
2017-May-24 05:49N 59°23' E 018°37'3 9.3
2017-May-24 05:28N 59°26' E 018°39'2 4.4
2017-May-24 04:59N 59°26' E 018°43'4 9.1
2017-May-24 04:30N 59°29' E 018°50'1 2.1
2017-May-24 03:56N 59°30' E 018°51'0 0.0
2017-May-24 02:23N 59°30' E 018°51'0 0.0
2017-May-24 01:50N 59°30' E 018°51'0 0.0
2017-May-24 01:26N 59°30' E 018°51'0 0.0
2017-May-24 00:38N 59°30' E 018°51'0 0.0
2017-May-24 00:14N 59°30' E 018°51'0 0.0
2017-May-23 23:32N 59°30' E 018°51'0 0.0
2017-May-23 23:14N 59°30' E 018°51'0 0.0
2017-May-23 22:53N 59°30' E 018°51'0 0.0
2017-May-23 22:11N 59°30' E 018°51'0 0.0
2017-May-23 21:59N 59°30' E 018°51'0 0.0
2017-May-23 19:41N 59°30' E 018°51'0 0.0
2017-May-23 19:26N 59°30' E 018°51'0 0.0
2017-May-23 18:44N 59°30' E 018°51'0 0.0
2017-May-23 18:26N 59°30' E 018°51'0 0.0
2017-May-23 17:59N 59°30' E 018°51'0 0.0
2017-May-23 17:29N 59°30' E 018°51'0 0.0
2017-May-23 16:50N 59°30' E 018°51'2 6.5
2017-May-23 16:30N 59°28' E 018°49'4 8.6
2017-May-23 15:59N 59°26' E 018°41'3 5.8
2017-May-23 15:30N 59°24' E 018°37'4 5.5
2017-May-23 14:43N 59°25' E 018°29'5 7.1
2017-May-23 14:00N 59°23' E 018°20'5 9.9
2017-May-23 13:30N 59°20' E 018°12'4 7.8
2017-May-23 13:00N 59°20' E 018°04'0 0.1
2017-May-23 12:30N 59°20' E 018°04'0 0.0
2017-May-23 12:00N 59°20' E 018°04'0 0.0
2017-May-23 11:27N 59°20' E 018°04'0 0.0
2017-May-23 10:57N 59°20' E 018°04'0 0.0
2017-May-23 10:24N 59°20' E 018°04'0 0.0
2017-May-23 10:00N 59°20' E 018°04'0 0.0
2017-May-23 09:30N 59°20' E 018°04'0 0.0
2017-May-23 09:00N 59°20' E 018°04'0 0.0
2017-May-23 08:27N 59°20' E 018°04'0 0.0
2017-May-23 08:00N 59°20' E 018°04'0 0.0
2017-May-23 07:27N 59°20' E 018°04'0 0.0
2017-May-23 06:57N 59°20' E 018°04'0 0.0
2017-May-23 06:30N 59°20' E 018°04'0 0.0
2017-May-23 06:00N 59°20' E 018°04'0 0.0
2017-May-23 05:30N 59°20' E 018°04'0 0.0
2017-May-23 05:00N 59°20' E 018°04'0 0.0
2017-May-23 04:30N 59°20' E 018°04'0 0.0
2017-May-23 04:00N 59°20' E 018°04'0 0.0
2017-May-23 03:30N 59°20' E 018°04'0 0.0
2017-May-23 03:00N 59°20' E 018°04'0 0.0
2017-May-23 02:30N 59°20' E 018°04'0 0.0
2017-May-23 02:00N 59°20' E 018°04'0 0.0
2017-May-23 01:30N 59°20' E 018°04'0 0.0
2017-May-23 01:00N 59°20' E 018°04'0 0.0
2017-May-23 00:30N 59°20' E 018°04'0 0.0
2017-May-23 00:00N 59°20' E 018°04'0 0.0
2017-May-22 23:30N 59°20' E 018°04'0 0.0
2017-May-22 23:00N 59°20' E 018°04'0 0.0
2017-May-22 22:27N 59°20' E 018°04'0 0.0
2017-May-22 21:54N 59°20' E 018°04'0 0.0
2017-May-22 21:27N 59°20' E 018°04'0 0.0
2017-May-22 21:00N 59°20' E 018°04'0 0.0
2017-May-22 20:30N 59°20' E 018°04'0 0.0
2017-May-22 19:57N 59°20' E 018°04'0 0.0
2017-May-22 19:30N 59°20' E 018°04'0 0.0
2017-May-22 18:57N 59°20' E 018°04'0 0.0
2017-May-22 18:30N 59°20' E 018°04'0 0.0
2017-May-22 18:00N 59°20' E 018°04'0 0.0
2017-May-22 17:30N 59°20' E 018°04'0 0.0
2017-May-22 16:57N 59°20' E 018°04'0 0.0
2017-May-22 16:30N 59°20' E 018°04'0 0.0
2017-May-22 15:57N 59°20' E 018°04'0 0.0
2017-May-22 15:30N 59°20' E 018°04'0 0.0
2017-May-22 14:57N 59°20' E 018°04'0 0.0
2017-May-22 14:00N 59°20' E 018°04'0 0.0
2017-May-22 13:30N 59°20' E 018°04'0 0.0
2017-May-22 13:00N 59°20' E 018°04'0 0.0
2017-May-22 12:30N 59°20' E 018°04'0 0.0
2017-May-22 12:00N 59°20' E 018°04'0 0.0
2017-May-22 11:30N 59°20' E 018°04'0 0.0
2017-May-22 10:57N 59°20' E 018°04'0 0.0
2017-May-22 10:30N 59°20' E 018°04'0 0.0
2017-May-22 10:00N 59°20' E 018°04'0 0.0
2017-May-22 09:30N 59°20' E 018°04'0 0.0
2017-May-22 09:00N 59°20' E 018°04'0 0.0
2017-May-22 08:30N 59°20' E 018°04'0 0.7
2017-May-22 08:01N 59°19' E 018°05'612.2
2017-May-22 07:30N 59°22' E 018°16'4 8.0
2017-May-22 07:00N 59°24' E 018°21'3 6.6
2017-May-22 06:30N 59°26' E 018°28'4 0.3
2017-May-21 17:44N 59°24' E 018°34'311.8
2017-May-21 17:27N 59°25' E 018°28'4 8.6
2017-May-21 17:00N 59°24' E 018°21'5 9.2
2017-May-21 16:31N 59°21' E 018°14'510.5
2017-May-21 16:00N 59°20' E 018°04'0 0.1
2017-May-21 15:30N 59°20' E 018°05'0 0.0
2017-May-21 15:00N 59°20' E 018°05'1 0.7
2017-May-21 14:00N 59°19' E 018°05'612.0
2017-May-21 13:30N 59°22' E 018°16'5 9.5
2017-May-21 13:00N 59°26' E 018°22'15 1.7
2017-May-21 04:14N 59°30' E 018°51'0 0.0
2017-May-21 03:26N 59°30' E 018°51'0 0.0
2017-May-21 02:59N 59°30' E 018°51'0 0.0
2017-May-20 17:44N 59°30' E 018°51'1 3.2
2017-May-20 17:28N 59°29' E 018°50'5 8.0
2017-May-20 16:48N 59°26' E 018°41'5 5.6
2017-May-20 15:52N 59°25' E 018°31'3 8.2
2017-May-20 15:30N 59°26' E 018°25'3 6.8
2017-May-20 15:00N 59°23' E 018°21'4 7.6
2017-May-20 14:30N 59°21' E 018°15'5 5.1
2017-May-20 13:28N 59°20' E 018°04'0 0.0
2017-May-20 12:58N 59°20' E 018°04'0 0.0
2017-May-20 12:30N 59°20' E 018°04'  
Track history (hours):
 
Tides and Currents Weather Stations Pressure Air Temp Water Temp Dewpoint Dewpoint Depression Visibility Wind Speed Wind Dir Waves Ship Positions

Varmdo

Last reported at 2017-May-30 12:28 UTC. Time now 2017-May-30 12:54 UTC.
Position N 59°20' E 018°05'.

Length 38 m; draft 2.5 m.

Type: Passenger vessel. MMSI: 265520390.

Date/timePositionNaut miles runAvg speedWind from/ knotsBaromVisibWave heightAir tempDewpointWater temp
2017-May-30 12:28N 59°20' E 018°05'0 0.0
2017-May-30 11:59N 59°20' E 018°05'0 0.0
2017-May-30 11:28N 59°20' E 018°05'0 0.0
2017-May-30 10:55N 59°20' E 018°05'0 0.0
2017-May-30 10:29N 59°20' E 018°05'0 0.0
2017-May-30 09:59N 59°20' E 018°05'0 0.0
2017-May-30 09:28N 59°20' E 018°05'0 0.0
2017-May-30 08:58N 59°20' E 018°05'0 0.0
2017-May-30 08:28N 59°20' E 018°05'0 0.0
2017-May-30 07:58N 59°20' E 018°05'0 0.0
2017-May-30 07:29N 59°20' E 018°05'0 0.0
2017-May-30 06:58N 59°20' E 018°05'0 0.0
2017-May-30 06:28N 59°20' E 018°05'0 0.0
2017-May-30 05:58N 59°20' E 018°05'0 0.0
2017-May-30 05:25N 59°20' E 018°05'0 0.0
2017-May-30 04:58N 59°20' E 018°05'0 0.0
2017-May-30 04:28N 59°20' E 018°05'0 0.0
2017-May-30 03:58N 59°20' E 018°05'0 0.0
2017-May-30 03:29N 59°20' E 018°05'0 0.0
2017-May-30 02:59N 59°20' E 018°05'0 0.0
2017-May-30 02:29N 59°20' E 018°05'0 0.0
2017-May-30 01:58N 59°20' E 018°05'0 0.0
2017-May-30 01:28N 59°20' E 018°05'0 0.0
2017-May-30 00:59N 59°20' E 018°05'0 0.0
2017-May-30 00:28N 59°20' E 018°05'0 0.0
2017-May-29 23:58N 59°20' E 018°05'0 0.0
2017-May-29 23:29N 59°20' E 018°05'0 0.0
2017-May-29 22:58N 59°20' E 018°05'0 0.0
2017-May-29 22:28N 59°20' E 018°05'0 0.0
2017-May-29 21:58N 59°20' E 018°05'0 0.0
2017-May-29 21:28N 59°20' E 018°05'0 0.0
2017-May-29 20:59N 59°20' E 018°05'0 0.0
2017-May-29 20:28N 59°20' E 018°05'0 0.0
2017-May-29 19:58N 59°20' E 018°05'0 0.0
2017-May-29 19:28N 59°20' E 018°05'0 0.0
2017-May-29 18:59N 59°20' E 018°05'0 0.0
2017-May-29 18:28N 59°20' E 018°05'0 0.0
2017-May-29 17:59N 59°20' E 018°05'0 0.0
2017-May-29 17:29N 59°20' E 018°05'0 0.0
2017-May-29 16:59N 59°20' E 018°05'0 0.0
2017-May-29 16:28N 59°20' E 018°05'0 0.0
2017-May-29 15:58N 59°20' E 018°05'0 0.0
2017-May-29 15:29N 59°20' E 018°05'0 0.0
2017-May-29 14:58N 59°20' E 018°05'0 0.0
2017-May-29 14:29N 59°20' E 018°05'0 0.0
2017-May-29 13:29N 59°20' E 018°05'0 0.0
2017-May-29 12:58N 59°20' E 018°05'0 0.0
2017-May-29 12:28N 59°20' E 018°05'0 0.0
2017-May-29 11:59N 59°20' E 018°05'0 0.0
2017-May-29 11:29N 59°20' E 018°05'0 0.0
2017-May-29 10:58N 59°20' E 018°05'0 0.0
2017-May-29 10:28N 59°20' E 018°05'0 0.0
2017-May-29 09:59N 59°20' E 018°05'0 0.0
2017-May-29 09:28N 59°20' E 018°05'0 0.0
2017-May-29 08:58N 59°20' E 018°05'0 0.0
2017-May-29 08:29N 59°20' E 018°05'3 5.5
2017-May-29 08:00N 59°19' E 018°09'611.6
2017-May-29 07:29N 59°23' E 018°19'3 5.5
2017-May-29 07:00N 59°25' E 018°22'3 6.1
2017-May-29 06:29N 59°25' E 018°28'14 1.6
2017-May-28 21:58N 59°27' E 018°55'0 0.0
2017-May-28 21:28N 59°27' E 018°55'0 0.0
2017-May-28 20:58N 59°27' E 018°55'0 0.0
2017-May-28 20:28N 59°27' E 018°55'0 0.0
2017-May-28 19:58N 59°27' E 018°55'0 0.0
2017-May-28 19:28N 59°27' E 018°55'5 5.6
2017-May-28 18:39N 59°23' E 018°50'2 9.8
2017-May-28 18:28N 59°24' E 018°47'7 9.5
2017-May-28 17:44N 59°24' E 018°34'311.1
2017-May-28 17:28N 59°25' E 018°28'4 8.3
2017-May-28 17:01N 59°24' E 018°21'5 9.2
2017-May-28 16:30N 59°21' E 018°15'510.5
2017-May-28 16:00N 59°20' E 018°04'0 0.0
2017-May-28 15:29N 59°20' E 018°04'0 0.0
2017-May-28 14:56N 59°20' E 018°04'3 2.8
2017-May-28 14:00N 59°19' E 018°09'612.6
2017-May-28 13:30N 59°23' E 018°19'4 7.8
2017-May-28 12:58N 59°25' E 018°26'1011.8
2017-May-28 12:08N 59°23' E 018°44'2 7.6
2017-May-28 11:50N 59°24' E 018°47'2 5.1
2017-May-28 11:24N 59°23' E 018°50'3 6.5
2017-May-28 10:57N 59°25' E 018°54'1 1.4
2017-May-28 10:30N 59°25' E 018°55'3 6.0
2017-May-28 09:57N 59°23' E 018°51'7 3.0
2017-May-28 07:41N 59°25' E 018°38'2 7.5
2017-May-28 07:29N 59°26' E 018°39'3 5.5
2017-May-28 06:57N 59°28' E 018°44'4 8.9
2017-May-28 06:30N 59°30' E 018°51'0 0.0
2017-May-28 06:00N 59°30' E 018°51'0 0.0
2017-May-28 05:30N 59°30' E 018°51'0 0.0
2017-May-28 04:48N 59°30' E 018°51'0 0.0
2017-May-28 04:30N 59°30' E 018°51'0 0.0
2017-May-28 03:54N 59°30' E 018°51'0 0.0
2017-May-28 03:12N 59°30' E 018°51'0 0.0
2017-May-28 03:00N 59°30' E 018°51'0 0.0
2017-May-28 02:30N 59°30' E 018°51'0 0.0
2017-May-28 02:00N 59°30' E 018°51'0 0.0
2017-May-28 01:30N 59°30' E 018°51'0 0.0
2017-May-28 01:00N 59°30' E 018°51'0 0.0
2017-May-28 00:24N 59°30' E 018°51'0 0.0
2017-May-27 23:57N 59°30' E 018°51'0 0.0
2017-May-27 23:27N 59°30' E 018°51'0 0.0
2017-May-27 23:00N 59°30' E 018°51'0 0.0
2017-May-27 22:30N 59°30' E 018°51'0 0.0
2017-May-27 19:24N 59°30' E 018°51'0 0.0
2017-May-27 19:00N 59°30' E 018°51'0 0.0
2017-May-27 18:30N 59°30' E 018°51'0 0.0
2017-May-27 17:54N 59°30' E 018°51'0 0.0
2017-May-27 17:30N 59°30' E 018°51'5 8.9
2017-May-27 16:59N 59°27' E 018°44'8 6.3
2017-May-27 15:40N 59°25' E 018°28'1 8.5
2017-May-27 15:30N 59°26' E 018°25'4 7.2
2017-May-27 15:01N 59°23' E 018°20'9 8.7
2017-May-27 14:00N 59°20' E 018°04'0 0.1
2017-May-27 13:30N 59°20' E 018°04'0 0.0
2017-May-27 13:00N 59°20' E 018°04'1 2.1
2017-May-27 12:31N 59°19' E 018°06'510.1
2017-May-27 12:01N 59°22' E 018°15'4 8.4
2017-May-27 11:30N 59°24' E 018°21'4 7.4
2017-May-27 11:00N 59°25' E 018°28'816.3
2017-May-27 10:30N 59°26' E 018°44'612.0
2017-May-27 10:01N 59°26' E 018°56'4 7.0
2017-May-27 09:27N 59°23' E 018°52'3 6.1
2017-May-27 09:00N 59°24' E 018°47'10 6.2
2017-May-27 07:24N 59°25' E 018°28'4 9.6
2017-May-27 07:00N 59°24' E 018°21'5 9.0
2017-May-27 06:30N 59°21' E 018°15'510.8
2017-May-27 06:00N 59°20' E 018°04'0 0.1
2017-May-27 05:30N 59°20' E 018°04'0 0.0
2017-May-27 05:00N 59°20' E 018°04'0 0.0
2017-May-27 04:30N 59°20' E 018°04'0 0.0
2017-May-27 04:00N 59°20' E 018°04'0 0.0
2017-May-27 03:30N 59°20' E 018°04'0 0.0
2017-May-27 03:00N 59°20' E 018°04'0 0.0
2017-May-27 02:30N 59°20' E 018°04'0 0.0
2017-May-27 02:00N 59°20' E 018°04'0 0.0
2017-May-27 01:30N 59°20' E 018°04'0 0.0
2017-May-27 01:00N 59°20' E 018°04'0 0.0
2017-May-27 00:30N 59°20' E 018°04'0 0.0
2017-May-27 00:00N 59°20' E 018°04'0 0.0
2017-May-26 23:30N 59°20' E 018°04'0 0.0
2017-May-26 23:00N 59°20' E 018°04'0 0.0
2017-May-26 22:30N 59°20' E 018°04'0 0.0
2017-May-26 22:00N 59°20' E 018°04'0 0.0
2017-May-26 21:30N 59°20' E 018°04'0 0.0
2017-May-26 21:00N 59°20' E 018°04'0 0.0
2017-May-26 20:30N 59°20' E 018°04'0 0.0
2017-May-26 20:00N 59°20' E 018°04'0 0.0
2017-May-26 19:30N 59°20' E 018°04'5 9.3
2017-May-26 19:00N 59°21' E 018°13'510.8
2017-May-26 18:30N 59°24' E 018°21'611.8
2017-May-26 17:59N 59°25' E 018°33'3 5.2
2017-May-26 17:30N 59°27' E 018°36'5 9.5
2017-May-26 17:01N 59°29' E 018°45'2 4.0
2017-May-26 16:30N 59°30' E 018°48'611.3
2017-May-26 16:00N 59°27' E 018°38'3 5.0
2017-May-26 15:28N 59°26' E 018°34'4 9.3
2017-May-26 15:00N 59°27' E 018°27'9 8.8
2017-May-26 14:00N 59°21' E 018°15'510.7
2017-May-26 13:30N 59°20' E 018°04'0 0.1
2017-May-26 13:00N 59°20' E 018°05'0 0.0
2017-May-26 12:30N 59°20' E 018°05'0 0.0
2017-May-26 12:00N 59°20' E 018°05'5 9.6
2017-May-26 11:30N 59°21' E 018°14'4 8.7
2017-May-26 11:00N 59°23' E 018°20'4 8.0
2017-May-26 10:31N 59°21' E 018°15'510.0
2017-May-26 09:59N 59°20' E 018°04'0 0.0
2017-May-26 09:29N 59°20' E 018°04'0 0.0
2017-May-26 08:59N 59°20' E 018°04'0 0.0
2017-May-26 08:29N 59°20' E 018°04'0 0.0
2017-May-26 07:59N 59°20' E 018°04'0 0.0
2017-May-26 07:29N 59°20' E 018°04'0 0.0
2017-May-26 06:59N 59°20' E 018°04'0 0.0
2017-May-26 06:29N 59°20' E 018°04'0 0.0
2017-May-26 05:59N 59°20' E 018°04'4 7.5
2017-May-26 05:30N 59°20' E 018°11'5 9.6
2017-May-26 05:00N 59°23' E 018°19'2 4.3
2017-May-26 04:30N 59°24' E 018°22'1 1.4
2017-May-26 04:00N 59°24' E 018°23'1 1.7
2017-May-26 03:26N 59°24' E 018°21'0 0.0
2017-May-26 02:59N 59°24' E 018°21'0 0.0
2017-May-26 02:29N 59°24' E 018°21'0 0.0
2017-May-26 01:47N 59°24' E 018°21'0 0.0
2017-May-26 01:23N 59°24' E 018°21'0 0.0
2017-May-26 00:59N 59°24' E 018°21'0 0.0
2017-May-26 00:23N 59°24' E 018°21'0 0.0
2017-May-25 23:59N 59°24' E 018°21'0 0.0
2017-May-25 23:29N 59°24' E 018°21'0 0.0
2017-May-25 22:59N 59°24' E 018°21'0 0.0
2017-May-25 22:29N 59°24' E 018°21'0 0.0
2017-May-25 21:59N 59°24' E 018°21'0 0.0
2017-May-25 21:29N 59°24' E 018°21'0 0.0
2017-May-25 20:59N 59°24' E 018°21'0 0.0
2017-May-25 20:29N 59°24' E 018°21'0 0.0
2017-May-25 19:54N 59°24' E 018°21'614.6
2017-May-25 19:30N 59°20' E 018°13'4 8.7
2017-May-25 19:00N 59°20' E 018°05'510.5
2017-May-25 18:30N 59°21' E 018°14'5 9.0
2017-May-25 18:00N 59°24' E 018°21'4 7.2
2017-May-25 17:29N 59°25' E 018°28'8 7.2
2017-May-25 16:26N 59°22' E 018°42'4 4.7
2017-May-25 15:35N 59°23' E 018°50'2 7.8
2017-May-25 15:19N 59°24' E 018°53'3 8.7
2017-May-25 15:00N 59°26' E 018°56'4 8.3
2017-May-25 14:30N 59°23' E 018°50'6 0.3
2017-May-24 18:24N 59°18' E 018°54'718.3
2017-May-24 18:00N 59°22' E 018°43'3 5.6
2017-May-24 17:25N 59°23' E 018°50'511.6
2017-May-24 17:00N 59°27' E 018°55'4 6.0
2017-May-24 16:23N 59°23' E 018°52'2 4.5
2017-May-24 15:50N 59°23' E 018°47'2 5.8
2017-May-24 15:28N 59°23' E 018°43'716.5
2017-May-24 15:00N 59°27' E 018°56'4 6.1
2017-May-24 14:16N 59°23' E 018°52'12 6.8
2017-May-24 12:26N 59°25' E 018°28'4 7.7
2017-May-24 11:57N 59°24' E 018°21'510.3
2017-May-24 11:31N 59°21' E 018°15'510.6
2017-May-24 11:00N 59°20' E 018°04'0 0.1
2017-May-24 10:22N 59°20' E 018°05'0 0.0
2017-May-24 09:43N 59°20' E 018°05'0 0.0
2017-May-24 09:22N 59°20' E 018°05'0 0.9
2017-May-24 09:00N 59°19' E 018°05'510.1
2017-May-24 08:29N 59°21' E 018°14'4 9.4
2017-May-24 08:00N 59°24' E 018°21'3 6.0
2017-May-24 07:30N 59°27' E 018°23'4 8.3
2017-May-24 07:00N 59°28' E 018°31'7 5.6
2017-May-24 05:49N 59°23' E 018°37'3 9.3
2017-May-24 05:28N 59°26' E 018°39'2 4.4
2017-May-24 04:59N 59°26' E 018°43'4 9.1
2017-May-24 04:30N 59°29' E 018°50'1 2.1
2017-May-24 03:56N 59°30' E 018°51'0 0.0
2017-May-24 02:23N 59°30' E 018°51'0 0.0
2017-May-24 01:50N 59°30' E 018°51'0 0.0
2017-May-24 01:26N 59°30' E 018°51'0 0.0
2017-May-24 00:38N 59°30' E 018°51'0 0.0
2017-May-24 00:14N 59°30' E 018°51'0 0.0
2017-May-23 23:32N 59°30' E 018°51'0 0.0
2017-May-23 23:14N 59°30' E 018°51'0 0.0
2017-May-23 22:53N 59°30' E 018°51'0 0.0
2017-May-23 22:11N 59°30' E 018°51'0 0.0
2017-May-23 21:59N 59°30' E 018°51'0 0.0
2017-May-23 19:41N 59°30' E 018°51'0 0.0
2017-May-23 19:26N 59°30' E 018°51'0 0.0
2017-May-23 18:44N 59°30' E 018°51'0 0.0
2017-May-23 18:26N 59°30' E 018°51'0 0.0
2017-May-23 17:59N 59°30' E 018°51'0 0.0
2017-May-23 17:29N 59°30' E 018°51'0 0.0
2017-May-23 16:50N 59°30' E 018°51'2 6.5
2017-May-23 16:30N 59°28' E 018°49'4 8.6
2017-May-23 15:59N 59°26' E 018°41'3 5.8
2017-May-23 15:30N 59°24' E 018°37'4 5.5
2017-May-23 14:43N 59°25' E 018°29'5 7.1
2017-May-23 14:00N 59°23' E 018°20'5 9.9
2017-May-23 13:30N 59°20' E 018°12'4 7.8
2017-May-23 13:00N 59°20' E 018°04'0 0.1
2017-May-23 12:30N 59°20' E 018°04'0 0.0
2017-May-23 12:00N 59°20' E 018°04'0 0.0
2017-May-23 11:27N 59°20' E 018°04'0 0.0
2017-May-23 10:57N 59°20' E 018°04'0 0.0
2017-May-23 10:24N 59°20' E 018°04'0 0.0
2017-May-23 10:00N 59°20' E 018°04'0 0.0
2017-May-23 09:30N 59°20' E 018°04'0 0.0
2017-May-23 09:00N 59°20' E 018°04'0 0.0
2017-May-23 08:27N 59°20' E 018°04'0 0.0
2017-May-23 08:00N 59°20' E 018°04'0 0.0
2017-May-23 07:27N 59°20' E 018°04'0 0.0
2017-May-23 06:57N 59°20' E 018°04'0 0.0
2017-May-23 06:30N 59°20' E 018°04'0 0.0
2017-May-23 06:00N 59°20' E 018°04'0 0.0
2017-May-23 05:30N 59°20' E 018°04'0 0.0
2017-May-23 05:00N 59°20' E 018°04'0 0.0
2017-May-23 04:30N 59°20' E 018°04'0 0.0
2017-May-23 04:00N 59°20' E 018°04'0 0.0
2017-May-23 03:30N 59°20' E 018°04'0 0.0
2017-May-23 03:00N 59°20' E 018°04'0 0.0
2017-May-23 02:30N 59°20' E 018°04'0 0.0
2017-May-23 02:00N 59°20' E 018°04'0 0.0
2017-May-23 01:30N 59°20' E 018°04'0 0.0
2017-May-23 01:00N 59°20' E 018°04'0 0.0
2017-May-23 00:30N 59°20' E 018°04'0 0.0
2017-May-23 00:00N 59°20' E 018°04'0 0.0
2017-May-22 23:30N 59°20' E 018°04'0 0.0
2017-May-22 23:00N 59°20' E 018°04'0 0.0
2017-May-22 22:27N 59°20' E 018°04'0 0.0
2017-May-22 21:54N 59°20' E 018°04'0 0.0
2017-May-22 21:27N 59°20' E 018°04'0 0.0
2017-May-22 21:00N 59°20' E 018°04'0 0.0
2017-May-22 20:30N 59°20' E 018°04'0 0.0
2017-May-22 19:57N 59°20' E 018°04'0 0.0
2017-May-22 19:30N 59°20' E 018°04'0 0.0
2017-May-22 18:57N 59°20' E 018°04'0 0.0
2017-May-22 18:30N 59°20' E 018°04'0 0.0
2017-May-22 18:00N 59°20' E 018°04'0 0.0
2017-May-22 17:30N 59°20' E 018°04'0 0.0
2017-May-22 16:57N 59°20' E 018°04'0 0.0
2017-May-22 16:30N 59°20' E 018°04'0 0.0
2017-May-22 15:57N 59°20' E 018°04'0 0.0
2017-May-22 15:30N 59°20' E 018°04'0 0.0
2017-May-22 14:57N 59°20' E 018°04'0 0.0
2017-May-22 14:00N 59°20' E 018°04'0 0.0
2017-May-22 13:30N 59°20' E 018°04'0 0.0
2017-May-22 13:00N 59°20' E 018°04'0 0.0
2017-May-22 12:30N 59°20' E 018°04'0 0.0
2017-May-22 12:00N 59°20' E 018°04'0 0.0
2017-May-22 11:30N 59°20' E 018°04'0 0.0
2017-May-22 10:57N 59°20' E 018°04'0 0.0
2017-May-22 10:30N 59°20' E 018°04'0 0.0
2017-May-22 10:00N 59°20' E 018°04'0 0.0
2017-May-22 09:30N 59°20' E 018°04'0 0.0
2017-May-22 09:00N 59°20' E 018°04'0 0.0
2017-May-22 08:30N 59°20' E 018°04'0 0.7
2017-May-22 08:01N 59°19' E 018°05'612.2
2017-May-22 07:30N 59°22' E 018°16'4 8.0
2017-May-22 07:00N 59°24' E 018°21'3 6.6
2017-May-22 06:30N 59°26' E 018°28'4 0.3
2017-May-21 17:44N 59°24' E 018°34'311.8
2017-May-21 17:27N 59°25' E 018°28'4 8.6
2017-May-21 17:00N 59°24' E 018°21'5 9.2
2017-May-21 16:31N 59°21' E 018°14'510.5
2017-May-21 16:00N 59°20' E 018°04'0 0.1
2017-May-21 15:30N 59°20' E 018°05'0 0.0
2017-May-21 15:00N 59°20' E 018°05'1 0.7
2017-May-21 14:00N 59°19' E 018°05'612.0
2017-May-21 13:30N 59°22' E 018°16'5 9.5
2017-May-21 13:00N 59°26' E 018°22'15 1.7
2017-May-21 04:14N 59°30' E 018°51'0 0.0
2017-May-21 03:26N 59°30' E 018°51'0 0.0
2017-May-21 02:59N 59°30' E 018°51'0 0.0
2017-May-20 17:44N 59°30' E 018°51'1 3.2
2017-May-20 17:28N 59°29' E 018°50'5 8.0
2017-May-20 16:48N 59°26' E 018°41'5 5.6
2017-May-20 15:52N 59°25' E 018°31'3 8.2
2017-May-20 15:30N 59°26' E 018°25'3 6.8
2017-May-20 15:00N 59°23' E 018°21'4 7.6
2017-May-20 14:30N 59°21' E 018°15'5 5.1
2017-May-20 13:28N 59°20' E 018°04'0 0.0
2017-May-20 12:58N 59°20' E 018°04'0 0.0
2017-May-20 12:30N 59°20' E 018°04'  

Dump ship's entire track history